• Join FlightAware (Why Join?)
  • Login
  • US Flag 
12:42AM EDT


 

Airport Tracker/Info


-or-


 

Live Flight TrackerFlight Track Log ✈ AWE3425 ✈ 28-Apr-2013 ✈ KMHT - KPHL

Flight Track Log - Related Links

Times and Time Zones

All times are in EDT time to prevent confusion due to time zone crossing. See the AWE3425 flight status page for this flight to view local times or setup timezone preferences in your user account.

Time Position Orientation Groundspeed Altitude Reporting Facility
EDT Latitude Longitude Course Direction KTS MPH feet Rate Location/Type
11:26AM 42.9500 -71.4167 270° West 160 184 1,100  Level KA90
11:27AM 42.9833 -71.4000 20° North 193 222 2,300 2,220 Climbing KA90
11:27AM 43.0083 -71.4039 354° North 252 290 3,500 3,000 Climbing Boston Center
11:28AM 43.0464 -71.4686 309° West 251 289 6,400 3,300 Climbing Boston Center
11:29AM 42.9500 -71.9032 270° West  Level FlightAware Approximate
11:29AM 43.0828 -71.5703 296° West 265 305 10,100  Level Boston Center
11:30AM 42.9500 -72.0219 270° West  Level FlightAware Approximate
11:30AM 43.0794 -71.6756 268° West 287 330 12,100  Level Boston Center
11:31AM 42.9501 -72.1407 270° West  Level FlightAware Approximate
11:31AM 43.0739 -71.8119 267° West 327 376 15,200  Level Boston Center
11:32AM 43.0683 -71.9286 266° West 345 397 17,800 2,220 Climbing Boston Center
11:33AM 43.0625 -72.0650 267° West 352 405 19,700 2,100 Climbing Boston Center
11:34AM 43.0567 -72.2014 267° West 357 411 22,000 2,100 Climbing Boston Center
11:35AM 43.0589 -72.3378 271° West 362 417 23,900 1,800 Climbing Boston Center
11:36AM 43.0486 -72.4797 264° West 372 428 25,700 1,020 Climbing Boston Center
11:37AM 43.0317 -72.6531 262° West 406 467 26,000 120 Climbing Boston Center
11:38AM 43.0250 -72.8092 267° West 411 473 26,000  Level Boston Center
11:39AM 42.9911 -72.9594 253° West 418 481 26,000  Level Boston Center
11:40AM 42.9361 -73.1008 242° Southwest 424 488 26,000  Level Boston Center
11:41AM 42.8789 -73.2392 241° Southwest 424 488 26,000  Level Boston Center
11:42AM 42.8258 -73.3828 243° Southwest 424 488 26,000  Level Boston Center
11:43AM 42.7703 -73.5206 241° Southwest 424 488 26,000  Level Boston Center
11:44AM 42.7147 -73.6581 241° Southwest 424 488 26,000  Level Boston Center
11:45AM 42.6592 -73.7839 239° Southwest 429 494 26,000  Level Boston Center
11:46AM 42.6011 -73.9322 242° Southwest 424 488 26,000  Level Boston Center
11:47AM 42.5469 -74.0719 242° Southwest 424 488 26,000  Level Boston Center
11:48AM 42.4908 -74.2083 241° Southwest 424 488 26,000  Level Boston Center
11:49AM 42.4364 -74.3447 242° Southwest 424 488 26,000  Level Boston Center
11:50AM 42.3758 -74.4833 239° Southwest 424 488 26,000 -60 Level Boston Center
11:51AM 42.3192 -74.6133 240° Southwest 417 480 25,900 -1,020 Descending Boston Center
11:53AM 42.2008 -74.7936 228° Southwest 393 452 23,400 -1,500 Descending New York Center
11:54AM 42.1261 -74.9036 228° Southwest 405 466 21,900 -1,560 Descending New York Center
11:55AM 42.0428 -75.0242 227° Southwest 412 474 20,300 -1,500 Descending New York Center
11:56AM 41.9683 -75.1281 226° Southwest 397 457 19,000 -720 Descending New York Center
11:57AM 41.8867 -75.1978 212° Southwest 381 438 19,000 -300 Level New York Center
11:58AM 41.7944 -75.2725 211° Southwest 388 447 18,500 -1,260 Descending New York Center
11:59AM 41.6975 -75.3519 211° Southwest 388 447 16,500 -1,980 Descending New York Center
12:00PM 41.6117 -75.4211 211° Southwest 378 435 14,600 -1,920 Descending New York Center
12:01PM 41.5297 -75.4872 211° Southwest 368 423 12,700 -1,320 Descending New York Center
12:02PM 41.4589 -75.5433 211° Southwest 346 398 12,000 -360 Descending New York Center
12:03PM 41.3686 -75.6142 210° Southwest 341 392 12,000  Level New York Center
12:04PM 41.2953 -75.6697 210° Southwest 341 392 12,000 -60 Level New York Center
12:05PM 41.1967 -75.6900 189° South 329 379 11,900 -600 Descending New York Center
12:06PM 41.1053 -75.6836 177° South 329 379 10,900 -1,020 Descending New York Center
12:07PM 41.0253 -75.6503 163° South 329 379 10,000 -480 Descending New York Center
12:08PM 40.9372 -75.6192 165° South 336 387 10,000  Level New York Center
12:09PM 40.8508 -75.5856 164° South 336 387 10,000  Level New York Center
12:10PM 40.7586 -75.5489 163° South 326 375 10,000  Level New York Center
12:11PM 40.6808 -75.5189 164° South 326 375 10,000  Level New York Center
12:12PM 40.5944 -75.4856 164° South 321 369 10,000  Level New York Center
12:13PM 40.5125 -75.4553 164° South 316 364 10,000  Level New York Center
12:14PM 40.4306 -75.4197 162° South 291 335 10,000 -480 Level New York Center
12:15PM 40.3592 -75.3794 157° South 286 329 9,100 -1,020 Descending New York Center
12:16PM 40.2939 -75.3400 155° Southeast 275 316 8,000 -600 Descending New York Center
12:17PM 40.2386 -75.3117 159° South 248 285 8,000  Level New York Center
12:18PM 40.1692 -75.2747 158° South 246 283 8,100 -540 Climbing New York Center
12:19PM 40.1183 -75.2442 155° Southeast 224 258 7,000 -1,320 Descending New York Center
12:19PM 40.1000 -75.2333 156° South 195 224 6,400 -720 Descending Philadelphia TRACON
12:20PM 40.0500 -75.2000 153° Southeast 194 223 6,100 -180 Descending Philadelphia TRACON
12:21PM 40.0000 -75.1833 166° South 192 221 6,100  Level Philadelphia TRACON
12:22PM 39.9833 -75.1167 108° East 194 223 6,100 -420 Level Philadelphia TRACON
12:23PM 40.0000 -75.0500 72° East 190 219 5,300 -1,080 Descending Philadelphia TRACON
12:25PM 39.9833 -75.0000 113° Southeast 181 208 3,900 -1,140 Descending Philadelphia TRACON
12:25PM 39.9500 -75.0167 201° Southwest 170 196 3,100 -600 Descending Philadelphia TRACON
12:27PM 39.9167 -75.0667 229° Southwest 169 194 2,700 -600 Descending Philadelphia TRACON
12:28PM 39.9000 -75.1167 247° West 161 185 1,900 -840 Descending Philadelphia TRACON